American Integrity — WDD2875 — position and weather

sailwx.info

Track history (hours):
 
Tides and Currents Weather Stations Pressure Air Temp Water Temp Dewpoint Dewpoint Depression Visibility Wind Speed Wind Dir Waves Ship Positions

American Integrity

Owner: American Steamship Company, Williamsville, NY. More information available from US FCC via Universal Licensing System and Coast Guard Vessel Documentation Center.

Last reported at 2016-Jan-15 23:33 UTC. Time now 2016-Feb-09 15:58 UTC.
Position N 45°57' W 083°54'.
Warning: this ship's position is 24 days out of date.

; draft 8 m.

Type: Cargo ship. MMSI: 367120990.

Date/timePositionNaut miles runAvg speedWind from/ knotsBaromVisibWave heightAir tempDewpointWater temp
2016-Jan-15 23:33N 45°57' W 083°54'322 8.7
2016-Jan-14 10:23N 47°02' W 091°32'6 6.5
2016-Jan-14 09:32N 47°01' W 091°40'0 0.1
2016-Jan-14 08:33N 47°01' W 091°40'0 0.0
2016-Jan-14 07:33N 47°01' W 091°40'0 0.0
2016-Jan-14 06:12N 47°01' W 091°40'0 0.0
2016-Jan-13 22:19N 47°01' W 091°40'0 0.0
2016-Jan-13 15:18N 47°01' W 091°40'3 3.4
2016-Jan-13 14:33N 46°58' W 091°41'1111.4
2016-Jan-13 13:33N 46°51' W 091°53'7 6.7
2016-Jan-13 12:33N 46°47' W 092°01'0 0.4
2016-Jan-13 11:33N 46°47' W 092°01'0 0.0
2016-Jan-13 10:32N 46°47' W 092°01'0 0.0
2016-Jan-13 09:33N 46°47' W 092°01'0 0.0
2016-Jan-13 08:33N 46°47' W 092°01'0 0.0
2016-Jan-13 07:33N 46°47' W 092°01'0 0.0
2016-Jan-13 06:34N 46°47' W 092°01'0 0.1
2016-Jan-13 05:33N 46°47' W 092°01'0 0.0
2016-Jan-13 04:33N 46°47' W 092°01'0 0.0
2016-Jan-13 03:33N 46°47' W 092°01'0 0.0
2016-Jan-13 02:33N 46°47' W 092°01'0 0.0
2016-Jan-13 01:33N 46°47' W 092°01'0 0.0
2016-Jan-13 00:33N 46°47' W 092°01'0 0.1
2016-Jan-12 23:33N 46°47' W 092°01'0 0.1
2016-Jan-12 22:33N 46°47' W 092°01'0 0.0
2016-Jan-12 21:33N 46°47' W 092°01'0 0.0
2016-Jan-12 20:33N 46°47' W 092°01'0 0.0
2016-Jan-12 19:33N 46°47' W 092°01'0 0.1
2016-Jan-12 18:33N 46°47' W 092°01'9 9.1
2016-Jan-12 17:33N 46°52' W 091°49'333 9.8
2016-Jan-11 07:30N 45°56' W 083°54'1212.4
2016-Jan-11 06:33N 45°51' W 084°08'1312.8
2016-Jan-11 05:33N 45°51' W 084°27'1312.8
2016-Jan-11 04:33N 45°49' W 084°45'1313.4
2016-Jan-11 03:33N 45°51' W 085°04'1313.2
2016-Jan-11 02:33N 45°53' W 085°23'1313.4
2016-Jan-11 01:33N 45°54' W 085°42'1313.3
2016-Jan-11 00:33N 45°54' W 086°01'1211.5
2016-Jan-10 23:31N 45°48' W 086°16'194 9.5
2016-Jan-10 03:00N 42°42' W 087°36'22 0.9 340 / 261008.1 0.0 -0.0
2016-Jan-09 02:00N 42°42' W 087°06'14111.3 210 / 121006.7 0.3 6.1
2016-Jan-08 13:33N 44°59' W 086°23'1211.4
2016-Jan-08 12:31N 45°11' W 086°19'1111.6
2016-Jan-08 11:33N 45°21' W 086°14'1211.5
2016-Jan-08 10:33N 45°32' W 086°10'1110.8
2016-Jan-08 09:33N 45°42' W 086°04'1111.3
2016-Jan-08 08:33N 45°48' W 085°49'1111.2
2016-Jan-08 07:33N 45°53' W 085°35'1111.4
2016-Jan-08 06:33N 45°53' W 085°19'1211.8
2016-Jan-08 05:33N 45°51' W 085°02'1211.8
2016-Jan-08 04:33N 45°49' W 084°46'1010.4
2016-Jan-08 03:33N 45°52' W 084°31'1211.8
2016-Jan-08 02:33N 45°53' W 084°14'1211.5
2016-Jan-08 01:33N 45°56' W 083°58'319 8.6
2016-Jan-06 12:31N 47°02' W 091°31'6 6.5
2016-Jan-06 11:33N 47°01' W 091°40'0 0.0
2016-Jan-06 10:32N 47°01' W 091°40'0 0.0
2016-Jan-06 09:33N 47°01' W 091°40'0 0.0
2016-Jan-06 08:32N 47°01' W 091°40'0 0.0
2016-Jan-06 07:33N 47°01' W 091°40'0 0.0
2016-Jan-06 06:33N 47°01' W 091°40'0 0.0
2016-Jan-06 05:32N 47°01' W 091°40'0 0.0
2016-Jan-06 04:33N 47°01' W 091°40'0 0.0
2016-Jan-06 03:33N 47°01' W 091°40'0 0.0
2016-Jan-06 02:33N 47°01' W 091°40'0 0.0
2016-Jan-06 01:33N 47°01' W 091°40'  
Track history (hours):
 
Tides and Currents Weather Stations Pressure Air Temp Water Temp Dewpoint Dewpoint Depression Visibility Wind Speed Wind Dir Waves Ship Positions

American Integrity

Owner: American Steamship Company, Williamsville, NY. More information available from US FCC via Universal Licensing System and Coast Guard Vessel Documentation Center.

Last reported at 2016-Jan-15 23:33 UTC. Time now 2016-Feb-09 15:58 UTC.
Position N 45°57' W 083°54'.
Warning: this ship's position is 24 days out of date.

; draft 8 m.

Type: Cargo ship. MMSI: 367120990.

Date/timePositionNaut miles runAvg speedWind from/ knotsBaromVisibWave heightAir tempDewpointWater temp
2016-Jan-15 23:33N 45°57' W 083°54'322 8.7
2016-Jan-14 10:23N 47°02' W 091°32'6 6.5
2016-Jan-14 09:32N 47°01' W 091°40'0 0.1
2016-Jan-14 08:33N 47°01' W 091°40'0 0.0
2016-Jan-14 07:33N 47°01' W 091°40'0 0.0
2016-Jan-14 06:12N 47°01' W 091°40'0 0.0
2016-Jan-13 22:19N 47°01' W 091°40'0 0.0
2016-Jan-13 15:18N 47°01' W 091°40'3 3.4
2016-Jan-13 14:33N 46°58' W 091°41'1111.4
2016-Jan-13 13:33N 46°51' W 091°53'7 6.7
2016-Jan-13 12:33N 46°47' W 092°01'0 0.4
2016-Jan-13 11:33N 46°47' W 092°01'0 0.0
2016-Jan-13 10:32N 46°47' W 092°01'0 0.0
2016-Jan-13 09:33N 46°47' W 092°01'0 0.0
2016-Jan-13 08:33N 46°47' W 092°01'0 0.0
2016-Jan-13 07:33N 46°47' W 092°01'0 0.0
2016-Jan-13 06:34N 46°47' W 092°01'0 0.1
2016-Jan-13 05:33N 46°47' W 092°01'0 0.0
2016-Jan-13 04:33N 46°47' W 092°01'0 0.0
2016-Jan-13 03:33N 46°47' W 092°01'0 0.0
2016-Jan-13 02:33N 46°47' W 092°01'0 0.0
2016-Jan-13 01:33N 46°47' W 092°01'0 0.0
2016-Jan-13 00:33N 46°47' W 092°01'0 0.1
2016-Jan-12 23:33N 46°47' W 092°01'0 0.1
2016-Jan-12 22:33N 46°47' W 092°01'0 0.0
2016-Jan-12 21:33N 46°47' W 092°01'0 0.0
2016-Jan-12 20:33N 46°47' W 092°01'0 0.0
2016-Jan-12 19:33N 46°47' W 092°01'0 0.1
2016-Jan-12 18:33N 46°47' W 092°01'9 9.1
2016-Jan-12 17:33N 46°52' W 091°49'333 9.8
2016-Jan-11 07:30N 45°56' W 083°54'1212.4
2016-Jan-11 06:33N 45°51' W 084°08'1312.8
2016-Jan-11 05:33N 45°51' W 084°27'1312.8
2016-Jan-11 04:33N 45°49' W 084°45'1313.4
2016-Jan-11 03:33N 45°51' W 085°04'1313.2
2016-Jan-11 02:33N 45°53' W 085°23'1313.4
2016-Jan-11 01:33N 45°54' W 085°42'1313.3
2016-Jan-11 00:33N 45°54' W 086°01'1211.5
2016-Jan-10 23:31N 45°48' W 086°16'194 9.5
2016-Jan-10 03:00N 42°42' W 087°36'22 0.9 340 / 261008.1 0.0 -0.0
2016-Jan-09 02:00N 42°42' W 087°06'14111.3 210 / 121006.7 0.3 6.1
2016-Jan-08 13:33N 44°59' W 086°23'1211.4
2016-Jan-08 12:31N 45°11' W 086°19'1111.6
2016-Jan-08 11:33N 45°21' W 086°14'1211.5
2016-Jan-08 10:33N 45°32' W 086°10'1110.8
2016-Jan-08 09:33N 45°42' W 086°04'1111.3
2016-Jan-08 08:33N 45°48' W 085°49'1111.2
2016-Jan-08 07:33N 45°53' W 085°35'1111.4
2016-Jan-08 06:33N 45°53' W 085°19'1211.8
2016-Jan-08 05:33N 45°51' W 085°02'1211.8
2016-Jan-08 04:33N 45°49' W 084°46'1010.4
2016-Jan-08 03:33N 45°52' W 084°31'1211.8
2016-Jan-08 02:33N 45°53' W 084°14'1211.5
2016-Jan-08 01:33N 45°56' W 083°58'319 8.6
2016-Jan-06 12:31N 47°02' W 091°31'6 6.5
2016-Jan-06 11:33N 47°01' W 091°40'0 0.0
2016-Jan-06 10:32N 47°01' W 091°40'0 0.0
2016-Jan-06 09:33N 47°01' W 091°40'0 0.0
2016-Jan-06 08:32N 47°01' W 091°40'0 0.0
2016-Jan-06 07:33N 47°01' W 091°40'0 0.0
2016-Jan-06 06:33N 47°01' W 091°40'0 0.0
2016-Jan-06 05:32N 47°01' W 091°40'0 0.0
2016-Jan-06 04:33N 47°01' W 091°40'0 0.0
2016-Jan-06 03:33N 47°01' W 091°40'0 0.0
2016-Jan-06 02:33N 47°01' W 091°40'0 0.0
2016-Jan-06 01:33N 47°01' W 091°40'  

Dump ship's entire track history